Vb Braco — EAIN — position and weather

sailwx.info

Track history (hours):
 
Tides and Currents Weather Stations Pressure Air Temp Water Temp Dewpoint Dewpoint Depression Visibility Wind Speed Wind Dir Waves Ship Positions

Vb Braco

Last reported at 2018-Jun-19 00:48 UTC. Time now 2018-Jun-24 22:13 UTC.
Position N 36°11' W 005°24'.

Length 26 m; draft 5 m.

Type: Tug. MMSI: 224624000.

Date/timePositionNaut miles runAvg speedWind from/ knotsBaromVisibWave heightAir tempDewpointWater temp
2018-Jun-19 00:48N 36°11' W 005°24'5 1.1
2018-Jun-18 20:17N 36°06' W 005°22'3 8.8
2018-Jun-18 20:00N 36°04' W 005°21'4 8.6
2018-Jun-18 19:30N 35°59' W 005°20'4 8.5
2018-Jun-18 19:00N 35°55' W 005°20'2 4.0
2018-Jun-18 18:30N 35°54' W 005°18'0 0.9
2018-Jun-18 18:00N 35°54' W 005°19'1 1.7
2018-Jun-18 17:30N 35°54' W 005°18'1 1.6
2018-Jun-18 17:00N 35°54' W 005°19'0 0.0
2018-Jun-18 16:30N 35°54' W 005°19'0 0.0
2018-Jun-18 16:01N 35°54' W 005°19'2 4.4
2018-Jun-18 15:30N 35°56' W 005°19'15 1.5
2018-Jun-18 05:54N 36°10' W 005°23'1 1.0
2018-Jun-18 04:39N 36°11' W 005°24'0 0.0
2018-Jun-18 04:30N 36°11' W 005°24'0 0.0
2018-Jun-18 03:43N 36°11' W 005°24'0 0.0
2018-Jun-18 03:30N 36°11' W 005°24'1 0.1
2018-Jun-17 21:25N 36°10' W 005°23'1 1.6
2018-Jun-17 21:01N 36°11' W 005°24'0 0.6
2018-Jun-17 20:30N 36°10' W 005°24'0 0.2
2018-Jun-17 19:03N 36°11' W 005°24'0 0.0
2018-Jun-17 19:00N 36°11' W 005°24'1 0.3
2018-Jun-17 15:11N 36°10' W 005°23'0 0.0
2018-Jun-17 14:54N 36°10' W 005°23'0 0.0
2018-Jun-17 14:29N 36°10' W 005°23'0 0.0
2018-Jun-17 14:00N 36°10' W 005°23'0 0.0
2018-Jun-17 13:26N 36°10' W 005°23'0 0.0
2018-Jun-17 12:45N 36°10' W 005°23'0 0.0
2018-Jun-17 12:26N 36°10' W 005°23'0 0.0
2018-Jun-17 03:31N 36°10' W 005°23'0 0.0
2018-Jun-16 19:17N 36°10' W 005°23'1 0.3
2018-Jun-16 15:28N 36°11' W 005°24'1 0.1
2018-Jun-15 23:58N 36°10' W 005°23'0 0.0
2018-Jun-15 23:28N 36°10' W 005°23'0 0.0
2018-Jun-15 19:49N 36°10' W 005°23'0 0.0
2018-Jun-15 19:18N 36°10' W 005°23'0 0.0
2018-Jun-15 18:59N 36°10' W 005°23'0 0.0
2018-Jun-15 02:52N 36°10' W 005°23'0 0.0
2018-Jun-15 02:30N 36°10' W 005°23'1 0.6
2018-Jun-15 01:24N 36°11' W 005°23'0 0.4
2018-Jun-15 00:58N 36°11' W 005°24'0 0.8
2018-Jun-15 00:28N 36°11' W 005°24'0 0.4
2018-Jun-15 00:00N 36°11' W 005°24'1 1.6
2018-Jun-14 23:28N 36°10' W 005°23'1 1.3
2018-Jun-14 22:59N 36°10' W 005°24'1 0.3
2018-Jun-14 19:56N 36°10' W 005°23'0 0.0
2018-Jun-14 19:30N 36°10' W 005°23'0 0.0
2018-Jun-14 06:04N 36°10' W 005°23'0 0.0
2018-Jun-14 06:00N 36°10' W 005°23'1 1.7
2018-Jun-14 05:30N 36°10' W 005°24'0 0.5
2018-Jun-14 04:36N 36°10' W 005°24'0 1.1
2018-Jun-14 04:25N 36°11' W 005°24'0 0.3
2018-Jun-14 04:00N 36°11' W 005°24'0 0.0
2018-Jun-14 03:30N 36°11' W 005°24'0 0.0
2018-Jun-14 03:00N 36°11' W 005°24'0 0.0
2018-Jun-14 02:26N 36°11' W 005°24'0 0.0
2018-Jun-13 22:44N 36°11' W 005°24'0 0.0
2018-Jun-13 22:30N 36°11' W 005°24'0 1.0
2018-Jun-13 22:00N 36°11' W 005°24'0 0.7
2018-Jun-13 21:30N 36°10' W 005°24'0 0.8
2018-Jun-13 21:00N 36°10' W 005°24'1 1.1
2018-Jun-13 20:30N 36°11' W 005°24'0 1.0
2018-Jun-13 20:00N 36°11' W 005°24'0 0.0
2018-Jun-13 19:30N 36°11' W 005°24'1 0.1
2018-Jun-13 05:56N 36°10' W 005°23'0 0.0
2018-Jun-13 05:18N 36°10' W 005°23'1 0.2
2018-Jun-13 00:43N 36°11' W 005°24'0 0.0
2018-Jun-13 00:22N 36°11' W 005°24'0 0.0
2018-Jun-12 23:59N 36°11' W 005°24'1 0.3
2018-Jun-12 20:39N 36°10' W 005°23'1 6.9
2018-Jun-12 20:29N 36°10' W 005°24'0 0.2
2018-Jun-12 19:54N 36°11' W 005°24'1 0.1
2018-Jun-12 05:18N 36°10' W 005°23'0 0.0
2018-Jun-11 23:43N 36°10' W 005°23'1 1.6
2018-Jun-11 23:05N 36°10' W 005°24'0 1.8
2018-Jun-11 23:00N 36°10' W 005°24'1 0.5
2018-Jun-11 20:37N 36°10' W 005°23'1 6.6
2018-Jun-11 20:30N 36°10' W 005°24'0 0.8
2018-Jun-11 19:58N 36°10' W 005°23'0 0.3
2018-Jun-11 18:36N 36°10' W 005°23'1 8.0
2018-Jun-11 18:30N 36°10' W 005°24'1 0.1
2018-Jun-11 05:55N 36°10' W 005°23'0 0.0
2018-Jun-11 05:30N 36°10' W 005°23'0 0.0
2018-Jun-11 04:44N 36°10' W 005°23'0 0.0
2018-Jun-11 04:21N 36°10' W 005°23'1 0.4
2018-Jun-11 02:44N 36°10' W 005°23'0 1.4
2018-Jun-11 02:30N 36°11' W 005°24'1 0.0
2018-Jun-10 06:33N 36°10' W 005°23'0 0.0
2018-Jun-10 06:24N 36°10' W 005°23'0 0.0
2018-Jun-10 05:49N 36°10' W 005°23'0 0.0
2018-Jun-10 05:20N 36°10' W 005°23'0 0.0
2018-Jun-10 00:07N 36°10' W 005°23'1 7.1
2018-Jun-10 00:00N 36°10' W 005°24'0 0.7
2018-Jun-09 23:30N 36°11' W 005°24'0 0.5
2018-Jun-09 22:59N 36°11' W 005°24'0 0.1
2018-Jun-09 22:30N 36°11' W 005°24'1 1.6
2018-Jun-09 22:00N 36°10' W 005°23'1 1.2
2018-Jun-09 21:24N 36°10' W 005°24'1 0.7
2018-Jun-09 19:43N 36°10' W 005°23'1 1.4
2018-Jun-09 19:12N 36°11' W 005°24'1 2.1
2018-Jun-09 18:53N 36°10' W 005°24'1 0.1
2018-Jun-09 13:15N 36°10' W 005°23'0 0.0
2018-Jun-09 12:22N 36°10' W 005°23'  
Track history (hours):
 
Tides and Currents Weather Stations Pressure Air Temp Water Temp Dewpoint Dewpoint Depression Visibility Wind Speed Wind Dir Waves Ship Positions

Vb Braco

Last reported at 2018-Jun-19 00:48 UTC. Time now 2018-Jun-24 22:13 UTC.
Position N 36°11' W 005°24'.

Length 26 m; draft 5 m.

Type: Tug. MMSI: 224624000.

Date/timePositionNaut miles runAvg speedWind from/ knotsBaromVisibWave heightAir tempDewpointWater temp
2018-Jun-19 00:48N 36°11' W 005°24'5 1.1
2018-Jun-18 20:17N 36°06' W 005°22'3 8.8
2018-Jun-18 20:00N 36°04' W 005°21'4 8.6
2018-Jun-18 19:30N 35°59' W 005°20'4 8.5
2018-Jun-18 19:00N 35°55' W 005°20'2 4.0
2018-Jun-18 18:30N 35°54' W 005°18'0 0.9
2018-Jun-18 18:00N 35°54' W 005°19'1 1.7
2018-Jun-18 17:30N 35°54' W 005°18'1 1.6
2018-Jun-18 17:00N 35°54' W 005°19'0 0.0
2018-Jun-18 16:30N 35°54' W 005°19'0 0.0
2018-Jun-18 16:01N 35°54' W 005°19'2 4.4
2018-Jun-18 15:30N 35°56' W 005°19'15 1.5
2018-Jun-18 05:54N 36°10' W 005°23'1 1.0
2018-Jun-18 04:39N 36°11' W 005°24'0 0.0
2018-Jun-18 04:30N 36°11' W 005°24'0 0.0
2018-Jun-18 03:43N 36°11' W 005°24'0 0.0
2018-Jun-18 03:30N 36°11' W 005°24'1 0.1
2018-Jun-17 21:25N 36°10' W 005°23'1 1.6
2018-Jun-17 21:01N 36°11' W 005°24'0 0.6
2018-Jun-17 20:30N 36°10' W 005°24'0 0.2
2018-Jun-17 19:03N 36°11' W 005°24'0 0.0
2018-Jun-17 19:00N 36°11' W 005°24'1 0.3
2018-Jun-17 15:11N 36°10' W 005°23'0 0.0
2018-Jun-17 14:54N 36°10' W 005°23'0 0.0
2018-Jun-17 14:29N 36°10' W 005°23'0 0.0
2018-Jun-17 14:00N 36°10' W 005°23'0 0.0
2018-Jun-17 13:26N 36°10' W 005°23'0 0.0
2018-Jun-17 12:45N 36°10' W 005°23'0 0.0
2018-Jun-17 12:26N 36°10' W 005°23'0 0.0
2018-Jun-17 03:31N 36°10' W 005°23'0 0.0
2018-Jun-16 19:17N 36°10' W 005°23'1 0.3
2018-Jun-16 15:28N 36°11' W 005°24'1 0.1
2018-Jun-15 23:58N 36°10' W 005°23'0 0.0
2018-Jun-15 23:28N 36°10' W 005°23'0 0.0
2018-Jun-15 19:49N 36°10' W 005°23'0 0.0
2018-Jun-15 19:18N 36°10' W 005°23'0 0.0
2018-Jun-15 18:59N 36°10' W 005°23'0 0.0
2018-Jun-15 02:52N 36°10' W 005°23'0 0.0
2018-Jun-15 02:30N 36°10' W 005°23'1 0.6
2018-Jun-15 01:24N 36°11' W 005°23'0 0.4
2018-Jun-15 00:58N 36°11' W 005°24'0 0.8
2018-Jun-15 00:28N 36°11' W 005°24'0 0.4
2018-Jun-15 00:00N 36°11' W 005°24'1 1.6
2018-Jun-14 23:28N 36°10' W 005°23'1 1.3
2018-Jun-14 22:59N 36°10' W 005°24'1 0.3
2018-Jun-14 19:56N 36°10' W 005°23'0 0.0
2018-Jun-14 19:30N 36°10' W 005°23'0 0.0
2018-Jun-14 06:04N 36°10' W 005°23'0 0.0
2018-Jun-14 06:00N 36°10' W 005°23'1 1.7
2018-Jun-14 05:30N 36°10' W 005°24'0 0.5
2018-Jun-14 04:36N 36°10' W 005°24'0 1.1
2018-Jun-14 04:25N 36°11' W 005°24'0 0.3
2018-Jun-14 04:00N 36°11' W 005°24'0 0.0
2018-Jun-14 03:30N 36°11' W 005°24'0 0.0
2018-Jun-14 03:00N 36°11' W 005°24'0 0.0
2018-Jun-14 02:26N 36°11' W 005°24'0 0.0
2018-Jun-13 22:44N 36°11' W 005°24'0 0.0
2018-Jun-13 22:30N 36°11' W 005°24'0 1.0
2018-Jun-13 22:00N 36°11' W 005°24'0 0.7
2018-Jun-13 21:30N 36°10' W 005°24'0 0.8
2018-Jun-13 21:00N 36°10' W 005°24'1 1.1
2018-Jun-13 20:30N 36°11' W 005°24'0 1.0
2018-Jun-13 20:00N 36°11' W 005°24'0 0.0
2018-Jun-13 19:30N 36°11' W 005°24'1 0.1
2018-Jun-13 05:56N 36°10' W 005°23'0 0.0
2018-Jun-13 05:18N 36°10' W 005°23'1 0.2
2018-Jun-13 00:43N 36°11' W 005°24'0 0.0
2018-Jun-13 00:22N 36°11' W 005°24'0 0.0
2018-Jun-12 23:59N 36°11' W 005°24'1 0.3
2018-Jun-12 20:39N 36°10' W 005°23'1 6.9
2018-Jun-12 20:29N 36°10' W 005°24'0 0.2
2018-Jun-12 19:54N 36°11' W 005°24'1 0.1
2018-Jun-12 05:18N 36°10' W 005°23'0 0.0
2018-Jun-11 23:43N 36°10' W 005°23'1 1.6
2018-Jun-11 23:05N 36°10' W 005°24'0 1.8
2018-Jun-11 23:00N 36°10' W 005°24'1 0.5
2018-Jun-11 20:37N 36°10' W 005°23'1 6.6
2018-Jun-11 20:30N 36°10' W 005°24'0 0.8
2018-Jun-11 19:58N 36°10' W 005°23'0 0.3
2018-Jun-11 18:36N 36°10' W 005°23'1 8.0
2018-Jun-11 18:30N 36°10' W 005°24'1 0.1
2018-Jun-11 05:55N 36°10' W 005°23'0 0.0
2018-Jun-11 05:30N 36°10' W 005°23'0 0.0
2018-Jun-11 04:44N 36°10' W 005°23'0 0.0
2018-Jun-11 04:21N 36°10' W 005°23'1 0.4
2018-Jun-11 02:44N 36°10' W 005°23'0 1.4
2018-Jun-11 02:30N 36°11' W 005°24'1 0.0
2018-Jun-10 06:33N 36°10' W 005°23'0 0.0
2018-Jun-10 06:24N 36°10' W 005°23'0 0.0
2018-Jun-10 05:49N 36°10' W 005°23'0 0.0
2018-Jun-10 05:20N 36°10' W 005°23'0 0.0
2018-Jun-10 00:07N 36°10' W 005°23'1 7.1
2018-Jun-10 00:00N 36°10' W 005°24'0 0.7
2018-Jun-09 23:30N 36°11' W 005°24'0 0.5
2018-Jun-09 22:59N 36°11' W 005°24'0 0.1
2018-Jun-09 22:30N 36°11' W 005°24'1 1.6
2018-Jun-09 22:00N 36°10' W 005°23'1 1.2
2018-Jun-09 21:24N 36°10' W 005°24'1 0.7
2018-Jun-09 19:43N 36°10' W 005°23'1 1.4
2018-Jun-09 19:12N 36°11' W 005°24'1 2.1
2018-Jun-09 18:53N 36°10' W 005°24'1 0.1
2018-Jun-09 13:15N 36°10' W 005°23'0 0.0
2018-Jun-09 12:22N 36°10' W 005°23'  

Dump ship's entire track history